Time;durP1;ratioP1;P1;durP2;ratioP2;P2;SDS_P1;SDS_P2;PMS_P1;PMS_P2;Temp;Humidity;BMP_temperature;BMP_pressure;BME280_temperature;BME280_humidity;BME280_pressure;Samples;Min_cycle;Max_cycle;Signal;HPM_P1;HPM_P2
2022/03/23 00:04:12;;;;;;;21.97;19.20;;;;;;;;;;12598758;28;20044;-76
2022/03/23 00:10:14;;;;;;;24.40;22.03;;;;;;;;;;12603859;28;20040;-76
2022/03/23 00:16:17;;;;;;;27.07;24.37;;;;;;;;;;12598449;28;20052;-76
2022/03/23 00:22:18;;;;;;;26.38;23.70;;;;;;;;;;12597716;28;20039;-76
2022/03/23 00:28:20;;;;;;;28.40;25.70;;;;;;;;;;12595686;28;20599;-76
2022/03/23 00:34:22;;;;;;;26.00;23.48;;;;;;;;;;12595465;28;20036;-78
2022/03/23 00:40:30;;;;;;;27.03;24.47;;;;;;;;;;12595446;28;20028;-79
2022/03/23 00:46:32;;;;;;;26.52;23.98;;;;;;;;;;12595312;28;20036;-79
2022/03/23 00:52:36;;;;;;;28.08;25.27;;;;;;;;;;12594546;28;20043;-79
2022/03/23 00:58:41;;;;;;;27.27;24.63;;;;;;;;;;12595712;28;20397;-79
2022/03/23 01:04:43;;;;;;;22.77;20.67;;;;;;;;;;12596300;28;20103;-79
2022/03/23 01:10:45;;;;;;;26.67;24.10;;;;;;;;;;12595210;28;20044;-79
2022/03/23 01:16:47;;;;;;;28.63;25.83;;;;;;;;;;12594205;28;20548;-79
2022/03/23 01:22:50;;;;;;;26.57;23.87;;;;;;;;;;12592851;28;20017;-79
2022/03/23 01:28:51;;;;;;;24.65;22.27;;;;;;;;;;12593205;28;20033;-79
2022/03/23 01:34:53;;;;;;;24.73;22.40;;;;;;;;;;12593291;28;20052;-76
2022/03/23 01:40:55;;;;;;;26.92;24.27;;;;;;;;;;12597330;28;20047;-77
2022/03/23 01:47:01;;;;;;;25.15;22.75;;;;;;;;;;12597654;28;20040;-79
2022/03/23 01:53:05;;;;;;;26.77;24.25;;;;;;;;;;12595247;28;20504;-79
2022/03/23 01:59:07;;;;;;;25.17;22.67;;;;;;;;;;12574927;28;20032;-80
2022/03/23 02:05:10;;;;;;;23.83;21.53;;;;;;;;;;12594125;28;20036;-79
2022/03/23 02:11:13;;;;;;;24.95;22.55;;;;;;;;;;12577408;28;20494;-79
2022/03/23 02:17:17;;;;;;;24.80;22.40;;;;;;;;;;12593695;28;20051;-78
2022/03/23 02:23:19;;;;;;;24.08;21.77;;;;;;;;;;12598600;28;20393;-75
2022/03/23 02:29:22;;;;;;;23.33;21.00;;;;;;;;;;12593248;28;20407;-75
2022/03/23 02:35:25;;;;;;;20.52;18.52;;;;;;;;;;12591745;28;20501;-75
2022/03/23 02:41:27;;;;;;;24.73;22.35;;;;;;;;;;12594239;28;20040;-75
2022/03/23 02:47:29;;;;;;;22.98;20.77;;;;;;;;;;12593776;28;20065;-75
2022/03/23 03:06:19;;;;;;;24.67;22.38;;;;;;;;;;12593904;28;20032;-79
2022/03/23 03:12:22;;;;;;;22.92;20.73;;;;;;;;;;12593530;28;20063;-79
2022/03/23 03:18:23;;;;;;;24.60;22.17;;;;;;;;;;12592892;28;20032;-78
2022/03/23 03:24:27;;;;;;;24.55;22.15;;;;;;;;;;12591637;28;20404;-79
2022/03/23 03:30:29;;;;;;;21.42;19.27;;;;;;;;;;12591245;28;20040;-79
2022/03/23 03:36:30;;;;;;;22.23;19.98;;;;;;;;;;12592375;28;20037;-76
2022/03/23 03:42:32;;;;;;;21.65;19.48;;;;;;;;;;12591130;28;20508;-76
2022/03/23 03:48:34;;;;;;;20.92;18.90;;;;;;;;;;12595622;28;20037;-75
2022/03/23 03:54:36;;;;;;;23.30;21.07;;;;;;;;;;12605150;28;20055;-79
2022/03/23 04:00:38;;;;;;;18.40;16.65;;;;;;;;;;12599644;28;20032;-79
2022/03/23 04:06:40;;;;;;;22.25;20.05;;;;;;;;;;12599445;28;20041;-76
2022/03/23 04:12:42;;;;;;;23.42;21.23;;;;;;;;;;12598283;28;20044;-77
2022/03/23 04:18:44;;;;;;;19.85;17.92;;;;;;;;;;12598320;28;20025;-76
2022/03/23 04:24:46;;;;;;;19.45;17.55;;;;;;;;;;12597793;28;20039;-76
2022/03/23 04:30:48;;;;;;;21.58;19.60;;;;;;;;;;12598450;28;20048;-76
2022/03/23 04:36:49;;;;;;;22.85;20.65;;;;;;;;;;12601006;28;20040;-76
2022/03/23 04:42:51;;;;;;;19.15;17.42;;;;;;;;;;12599931;28;20047;-76
2022/03/23 04:48:53;;;;;;;21.92;19.92;;;;;;;;;;12598855;28;20056;-76
2022/03/23 04:54:56;;;;;;;20.60;18.58;;;;;;;;;;12597310;28;20037;-76
2022/03/23 05:00:57;;;;;;;19.42;17.60;;;;;;;;;;12597399;28;20032;-76
2022/03/23 05:07:00;;;;;;;19.30;17.53;;;;;;;;;;12597119;28;20041;-78
2022/03/23 05:13:01;;;;;;;20.70;18.70;;;;;;;;;;12597634;28;20052;-79
2022/03/23 05:19:03;;;;;;;18.70;16.98;;;;;;;;;;12599145;28;20035;-79
2022/03/23 05:25:05;;;;;;;19.15;17.35;;;;;;;;;;12596820;28;20047;-79
2022/03/23 05:31:07;;;;;;;18.50;16.70;;;;;;;;;;12596695;28;20044;-79
2022/03/23 05:37:09;;;;;;;17.77;16.10;;;;;;;;;;12596245;28;20032;-76
2022/03/23 05:43:10;;;;;;;16.67;15.05;;;;;;;;;;12597955;28;20048;-77
2022/03/23 05:49:12;;;;;;;18.33;16.63;;;;;;;;;;12594925;28;20402;-78
2022/03/23 05:55:14;;;;;;;18.27;16.58;;;;;;;;;;12598044;28;20052;-81
2022/03/23 06:01:15;;;;;;;18.08;16.38;;;;;;;;;;12606892;28;20045;-80
2022/03/23 06:07:17;;;;;;;18.60;16.20;;;;;;;;;;12610480;28;20512;-81
2022/03/23 06:13:20;;;;;;;17.17;15.57;;;;;;;;;;12594886;28;20048;-79
2022/03/23 06:19:22;;;;;;;17.43;15.83;;;;;;;;;;12592857;28;20040;-79
2022/03/23 06:25:26;;;;;;;15.90;14.40;;;;;;;;;;12593132;28;20032;-78
2022/03/23 06:31:28;;;;;;;14.75;13.38;;;;;;;;;;12593926;28;20048;-78
2022/03/23 06:37:30;;;;;;;12.38;11.25;;;;;;;;;;12592868;28;20033;-78
2022/03/23 06:43:32;;;;;;;11.40;10.38;;;;;;;;;;12592177;28;20350;-80
2022/03/23 06:49:34;;;;;;;12.50;11.30;;;;;;;;;;12580032;28;20398;-79
2022/03/23 06:55:36;;;;;;;8.93;8.13;;;;;;;;;;12565746;28;20051;-83
2022/03/23 07:01:37;;;;;;;10.30;9.23;;;;;;;;;;12579134;28;20511;-79
2022/03/23 07:09:31;;;;;;;9.57;8.57;;;;;;;;;;12565446;28;20391;-80
2022/03/23 07:14:01;;;;;;;8.75;7.93;;;;;;;;;;12555121;28;20087;-79
2022/03/23 07:20:03;;;;;;;11.68;10.55;;;;;;;;;;12556807;28;20035;-80
2022/03/23 07:26:06;;;;;;;7.60;6.30;;;;;;;;;;12570252;28;20036;-82
2022/03/23 07:32:09;;;;;;;7.57;6.55;;;;;;;;;;12560966;28;20409;-80
2022/03/23 07:38:10;;;;;;;6.85;6.15;;;;;;;;;;12553307;28;20051;-82
2022/03/23 07:44:12;;;;;;;7.30;6.60;;;;;;;;;;12552504;28;20041;-79
2022/03/23 07:50:14;;;;;;;6.38;5.40;;;;;;;;;;12566419;28;20043;-78
2022/03/23 07:56:16;;;;;;;7.93;6.82;;;;;;;;;;12568075;28;20032;-80
2022/03/23 08:02:17;;;;;;;7.10;6.22;;;;;;;;;;12566674;28;20501;-80
2022/03/23 08:08:19;;;;;;;7.82;6.10;;;;;;;;;;12568724;28;20029;-81
2022/03/23 08:14:21;;;;;;;7.50;5.85;;;;;;;;;;12575373;28;20045;-79
2022/03/23 08:20:32;;;;;;;6.85;5.57;;;;;;;;;;12579516;28;20021;-78
2022/03/23 08:26:34;;;;;;;7.05;6.38;;;;;;;;;;12567385;28;20024;-78
2022/03/23 08:32:35;;;;;;;5.75;5.20;;;;;;;;;;12567515;28;20072;-77
2022/03/23 08:38:38;;;;;;;4.90;4.50;;;;;;;;;;12574590;28;20033;-77
2022/03/23 08:44:41;;;;;;;6.97;4.87;;;;;;;;;;12550047;28;20033;-80
2022/03/23 08:50:42;;;;;;;6.78;4.10;;;;;;;;;;12560827;28;20033;-80
2022/03/23 08:56:44;;;;;;;6.20;5.00;;;;;;;;;;12574308;28;20035;-81
2022/03/23 09:02:46;;;;;;;4.82;4.40;;;;;;;;;;12571831;28;20033;-77
2022/03/23 09:08:47;;;;;;;4.80;4.28;;;;;;;;;;12552879;28;20036;-78
2022/03/23 09:14:49;;;;;;;4.30;3.83;;;;;;;;;;12557850;28;20041;-79
2022/03/23 09:20:51;;;;;;;4.93;3.83;;;;;;;;;;12566534;28;20036;-82
2022/03/23 09:26:54;;;;;;;7.85;5.28;;;;;;;;;;12568119;28;20032;-78
2022/03/23 09:32:57;;;;;;;6.88;4.82;;;;;;;;;;12559788;28;20048;-78
2022/03/23 09:38:59;;;;;;;;;;;;;;;;;;12567875;28;20040;-78
2022/03/23 09:45:00;;;;;;;6.63;4.72;;;;;;;;;;12557097;28;19913;-78
2022/03/23 09:51:02;;;;;;;8.77;6.13;;;;;;;;;;12555699;28;20041;-77
2022/03/23 09:57:06;;;;;;;8.50;6.30;;;;;;;;;;12556370;28;20044;-76
2022/03/23 10:03:07;;;;;;;6.22;5.63;;;;;;;;;;12577189;28;20029;-76
2022/03/23 10:09:24;;;;;;;6.13;5.63;;;;;;;;;;12568567;28;20029;-78
2022/03/23 10:15:45;;;;;;;4.40;4.00;;;;;;;;;;12563932;28;20060;-78
2022/03/23 10:21:46;;;;;;;5.78;5.10;;;;;;;;;;12570265;28;20037;-78
2022/03/23 10:27:48;;;;;;;8.18;6.60;;;;;;;;;;12551932;28;20025;-77
2022/03/23 10:33:57;;;;;;;7.10;6.40;;;;;;;;;;12552156;28;20044;-79
2022/03/23 10:40:00;;;;;;;6.50;5.90;;;;;;;;;;12554111;28;20039;-79
2022/03/23 10:46:13;;;;;;;5.55;4.82;;;;;;;;;;12548677;28;20381;-79
2022/03/23 10:52:17;;;;;;;4.80;4.30;;;;;;;;;;12585738;28;20524;-79
2022/03/23 10:58:20;;;;;;;5.18;4.68;;;;;;;;;;12555258;28;20595;-80
2022/03/23 11:04:22;;;;;;;4.60;4.07;;;;;;;;;;12571861;28;20028;-80
2022/03/23 11:16:46;;;;;;;5.35;4.85;;;;;;;;;;12568282;28;20037;-80
2022/03/23 11:22:48;;;;;;;5.50;4.28;;;;;;;;;;12569657;28;20016;-80
2022/03/23 11:28:50;;;;;;;4.77;4.27;;;;;;;;;;12560625;28;20028;-80
2022/03/23 11:34:53;;;;;;;4.20;3.80;;;;;;;;;;12588301;28;20056;-79
2022/03/23 11:40:56;;;;;;;4.95;3.80;;;;;;;;;;12578792;28;20056;-80
2022/03/23 11:47:01;;;;;;;3.95;3.65;;;;;;;;;;12566057;28;20037;-80
2022/03/23 11:53:04;;;;;;;4.13;3.63;;;;;;;;;;12570520;28;20071;-80
2022/03/23 11:59:25;;;;;;;3.45;3.15;;;;;;;;;;12565279;28;20035;-80
2022/03/23 12:05:26;;;;;;;4.72;3.80;;;;;;;;;;12560063;28;20035;-80
2022/03/23 12:11:44;;;;;;;4.80;3.28;;;;;;;;;;12558116;28;20071;-80
2022/03/23 12:17:55;;;;;;;5.28;4.78;;;;;;;;;;12570234;28;20340;-78
2022/03/23 12:24:18;;;;;;;5.27;4.33;;;;;;;;;;12576230;28;20036;-79
2022/03/23 12:30:32;;;;;;;3.85;3.55;;;;;;;;;;12592154;28;20287;-79
2022/03/23 12:42:56;;;;;;;3.93;3.63;;;;;;;;;;12600529;28;20036;-77
2022/03/23 13:01:47;;;;;;;5.57;4.88;;;;;;;;;;12596887;28;20039;-76
2022/03/23 13:07:49;;;;;;;4.80;4.22;;;;;;;;;;12596126;28;20028;-77
2022/03/23 13:13:54;;;;;;;6.57;4.57;;;;;;;;;;12597801;28;20067;-75
2022/03/23 13:19:57;;;;;;;3.40;3.10;;;;;;;;;;12595037;28;20485;-74
2022/03/23 13:26:03;;;;;;;3.65;3.22;;;;;;;;;;12596684;28;20033;-76
2022/03/23 13:32:05;;;;;;;4.28;3.88;;;;;;;;;;12596483;28;20396;-76
2022/03/23 13:38:08;;;;;;;4.05;2.92;;;;;;;;;;12594891;28;20055;-76
2022/03/23 13:44:10;;;;;;;4.05;3.65;;;;;;;;;;12598678;28;20370;-78
2022/03/23 13:50:12;;;;;;;4.28;3.88;;;;;;;;;;12595244;28;20508;-78
2022/03/23 13:56:17;;;;;;;4.50;4.10;;;;;;;;;;12593565;28;20051;-78
2022/03/23 14:02:28;;;;;;;4.35;3.95;;;;;;;;;;12600873;28;20472;-79
2022/03/23 14:08:34;;;;;;;4.60;4.20;;;;;;;;;;12593550;28;20043;-78
2022/03/23 14:14:37;;;;;;;4.53;3.78;;;;;;;;;;12593521;28;20060;-79
2022/03/23 14:20:52;;;;;;;3.33;3.03;;;;;;;;;;12594228;28;20040;-79
2022/03/23 14:26:54;;;;;;;2.80;2.58;;;;;;;;;;12605922;28;20389;-77
2022/03/23 14:32:57;;;;;;;2.75;2.47;;;;;;;;;;12608659;28;20060;-76
2022/03/23 14:38:59;;;;;;;;;;;;;;;;;;12594666;28;20293;-77
2022/03/23 14:45:01;;;;;;;2.88;2.50;;;;;;;;;;12591845;28;19928;-76
2022/03/23 14:51:03;;;;;;;3.25;2.92;;;;;;;;;;12592925;28;20033;-77
2022/03/23 14:57:09;;;;;;;3.33;2.97;;;;;;;;;;12604057;28;20071;-79
2022/03/23 15:03:11;;;;;;;3.47;3.00;;;;;;;;;;12594318;28;20045;-79
2022/03/23 15:29:54;;;;;;;3.63;3.13;;;;;;;;;;12738268;27;20524;-76
2022/03/23 15:35:55;;;;;;;3.55;3.25;;;;;;;;;;12738083;27;20046;-76
2022/03/23 15:41:57;;;;;;;3.80;2.72;;;;;;;;;;12737762;28;20039;-76
2022/03/23 15:47:59;;;;;;;5.88;5.38;;;;;;;;;;12737317;27;20038;-76
2022/03/23 15:54:01;;;;;;;4.97;4.53;;;;;;;;;;12741495;27;20042;-76
2022/03/23 16:00:04;;;;;;;6.70;3.90;;;;;;;;;;12791622;27;20034;-76
2022/03/23 16:06:08;;;;;;;7.72;7.00;;;;;;;;;;12800537;27;20031;-76
2022/03/23 16:12:10;;;;;;;6.97;5.95;;;;;;;;;;12769125;27;20035;-76
2022/03/23 16:18:12;;;;;;;3.33;2.90;;;;;;;;;;12787478;27;20039;-76
2022/03/23 16:24:14;;;;;;;2.78;2.58;;;;;;;;;;12743621;27;20074;-76
2022/03/23 16:30:16;;;;;;;3.22;2.92;;;;;;;;;;12754294;27;20023;-75
2022/03/23 16:36:21;;;;;;;2.75;2.55;;;;;;;;;;12751025;27;20043;-76
2022/03/23 16:42:23;;;;;;;2.92;2.72;;;;;;;;;;12757186;27;20035;-76
2022/03/23 16:48:25;;;;;;;3.27;2.13;;;;;;;;;;12732038;27;20038;-76
2022/03/23 16:54:29;;;;;;;3.07;2.53;;;;;;;;;;12732215;27;20388;-82
2022/03/23 17:00:34;;;;;;;2.85;2.55;;;;;;;;;;12731263;27;20037;-84
2022/03/23 17:12:56;;;;;;;3.17;2.88;;;;;;;;;;12728700;27;20046;-75
2022/03/23 17:18:58;;;;;;;3.10;2.78;;;;;;;;;;12746707;27;20035;-76
2022/03/23 17:25:00;;;;;;;3.43;3.13;;;;;;;;;;12727987;27;20352;-76
2022/03/23 17:31:02;;;;;;;;;;;;;;;;;;12729171;27;20031;-75
2022/03/23 17:37:04;;;;;;;4.28;3.67;;;;;;;;;;12745222;27;19927;-76
2022/03/23 17:43:07;;;;;;;5.57;4.53;;;;;;;;;;12727062;27;20042;-76
2022/03/23 17:49:09;;;;;;;5.05;4.50;;;;;;;;;;12745162;27;20023;-74
2022/03/23 17:55:11;;;;;;;8.57;4.80;;;;;;;;;;12750863;27;20039;-74
2022/03/23 18:01:12;;;;;;;5.32;3.72;;;;;;;;;;12725305;27;20239;-75
2022/03/23 18:07:14;;;;;;;5.07;3.97;;;;;;;;;;12744892;27;20034;-76
2022/03/23 18:13:16;;;;;;;10.15;6.25;;;;;;;;;;12744234;27;20035;-74
2022/03/23 18:19:18;;;;;;;12.87;7.17;;;;;;;;;;12743699;27;20035;-74
2022/03/23 18:25:20;;;;;;;9.80;6.63;;;;;;;;;;12743624;27;20300;-77
2022/03/23 18:31:22;;;;;;;5.18;4.30;;;;;;;;;;12755438;27;20027;-76
2022/03/23 18:37:24;;;;;;;7.50;5.53;;;;;;;;;;12746950;27;20042;-75
2022/03/23 18:43:26;;;;;;;7.00;6.10;;;;;;;;;;12744749;27;20246;-74
2022/03/23 18:49:28;;;;;;;7.95;5.50;;;;;;;;;;12754735;27;20043;-77
2022/03/23 18:55:30;;;;;;;7.78;4.97;;;;;;;;;;12742463;27;20046;-75
2022/03/23 19:01:32;;;;;;;6.47;5.60;;;;;;;;;;12742362;27;20031;-77
2022/03/23 19:07:34;;;;;;;6.28;5.32;;;;;;;;;;12723748;27;20483;-77
2022/03/23 19:13:39;;;;;;;9.83;6.83;;;;;;;;;;12742069;27;20027;-75
2022/03/23 19:19:42;;;;;;;9.80;7.22;;;;;;;;;;12741974;28;20132;-78
2022/03/23 19:25:43;;;;;;;12.90;8.30;;;;;;;;;;12753438;28;20059;-77
2022/03/23 19:31:45;;;;;;;10.27;9.18;;;;;;;;;;12723265;28;20058;-77
2022/03/23 19:37:47;;;;;;;12.20;10.18;;;;;;;;;;12722802;28;20510;-77
2022/03/23 19:43:49;;;;;;;11.65;9.15;;;;;;;;;;12741734;28;20035;-78
2022/03/23 19:49:51;;;;;;;7.47;6.50;;;;;;;;;;12741219;28;20380;-77
2022/03/23 19:55:54;;;;;;;10.75;7.07;;;;;;;;;;12741969;28;20300;-78
2022/03/23 20:01:55;;;;;;;12.07;8.07;;;;;;;;;;12725300;27;20019;-78
2022/03/23 20:07:57;;;;;;;8.68;7.60;;;;;;;;;;12751816;27;20046;-78
2022/03/23 20:13:59;;;;;;;9.32;8.38;;;;;;;;;;12758387;27;20027;-77
2022/03/23 20:20:01;;;;;;;10.20;8.23;;;;;;;;;;12715591;27;20388;-77
2022/03/23 20:26:03;;;;;;;10.50;9.50;;;;;;;;;;12732080;27;20602;-77
2022/03/23 20:32:05;;;;;;;13.03;11.83;;;;;;;;;;12717307;27;20051;-78
2022/03/23 20:38:07;;;;;;;12.53;10.73;;;;;;;;;;12739241;27;20038;-78
2022/03/23 20:44:10;;;;;;;13.50;11.10;;;;;;;;;;12735913;27;20418;-78
2022/03/23 20:50:11;;;;;;;;;;;;;;;;;;12748784;27;20027;-78
2022/03/23 20:56:13;;;;;;;12.32;9.82;;;;;;;;;;12748490;27;19926;-77
2022/03/23 21:02:15;;;;;;;13.80;11.60;;;;;;;;;;12729643;27;20042;-78
2022/03/23 21:08:19;;;;;;;17.17;12.82;;;;;;;;;;12729172;27;20039;-78
2022/03/23 21:14:21;;;;;;;14.15;12.45;;;;;;;;;;12728872;27;20031;-78
2022/03/23 21:20:23;;;;;;;13.07;11.68;;;;;;;;;;12758829;27;20039;-78
2022/03/23 21:26:25;;;;;;;14.83;12.80;;;;;;;;;;12728792;27;20062;-77
2022/03/23 21:32:27;;;;;;;17.50;13.93;;;;;;;;;;12728976;27;20027;-77
2022/03/23 21:38:29;;;;;;;14.45;12.60;;;;;;;;;;12745739;27;20046;-76
2022/03/23 21:44:31;;;;;;;16.20;13.98;;;;;;;;;;12727485;27;20034;-77
2022/03/23 21:50:34;;;;;;;19.13;16.13;;;;;;;;;;12736317;27;20016;-77
2022/03/23 21:56:36;;;;;;;19.98;17.27;;;;;;;;;;12710793;27;20065;-77
2022/03/23 22:02:38;;;;;;;19.73;16.45;;;;;;;;;;12726509;27;20395;-77
2022/03/23 22:08:40;;;;;;;18.58;15.55;;;;;;;;;;12726544;27;20046;-77
2022/03/23 22:14:41;;;;;;;19.37;16.03;;;;;;;;;;12725953;27;20038;-76
2022/03/23 22:20:44;;;;;;;20.87;17.20;;;;;;;;;;12744175;27;20035;-77
2022/03/23 22:26:47;;;;;;;17.40;15.43;;;;;;;;;;12725932;27;20499;-76
2022/03/23 22:32:48;;;;;;;17.75;15.75;;;;;;;;;;12754982;27;20027;-77
2022/03/23 22:38:50;;;;;;;19.85;17.75;;;;;;;;;;12725778;27;20046;-76
2022/03/23 22:44:52;;;;;;;23.27;18.73;;;;;;;;;;12724748;27;20392;-76
2022/03/23 22:50:54;;;;;;;20.63;16.88;;;;;;;;;;12743362;27;20376;-76
2022/03/23 22:56:56;;;;;;;24.77;20.95;;;;;;;;;;12720322;27;20475;-77
2022/03/23 23:02:58;;;;;;;19.43;17.33;;;;;;;;;;12724632;27;20364;-77
2022/03/23 23:09:00;;;;;;;19.02;17.08;;;;;;;;;;12752628;27;20041;-77
2022/03/23 23:15:01;;;;;;;20.58;17.80;;;;;;;;;;12745460;27;20372;-77
2022/03/23 23:21:04;;;;;;;21.20;18.92;;;;;;;;;;12724034;28;20369;-77
2022/03/23 23:27:24;;;;;;;23.23;20.53;;;;;;;;;;12723398;28;20074;-77
2022/03/23 23:33:26;;;;;;;31.50;26.50;;;;;;;;;;12706325;28;20035;-77
2022/03/23 23:39:28;;;;;;;21.98;19.02;;;;;;;;;;12750396;27;20035;-77
2022/03/23 23:45:30;;;;;;;25.50;21.60;;;;;;;;;;12754740;27;20035;-77
2022/03/23 23:51:31;;;;;;;22.42;20.05;;;;;;;;;;12747880;27;20379;-77
2022/03/23 23:57:33;;;;;;;22.08;19.98;;;;;;;;;;12755625;27;20046;-76
